aviador You're here:

YPPH Decoded Metar

PERTH in AUSTRALIA
Report Time2017-08-22 16:00:00
UTC Time2017-08-22 16:37:20
Flight Rules vfr VFR
Wind190° at 08 kt
W.Decomp.*RWY 21: 7.6 kt HW 2.5 kt LCW
RWY 24: 5.4 kt HW 5.9 kt LCW
W.Rank190° ranks 2
Current wind is below 190° avg. (8.9)
Visibility9999 m
Phenomena:N/A
Clouds:N/A
Expected CloudBase > 1,200 ft AGL from Temp-Dew spread
CeilingNone
Temp13°C (ISA -2)
Dew Point10°C (82% RH)
AAT10.2°C
QNH1025 hPa
Density Alt-423 ft
Elevation43 ft
Report Wrong Elevation
Raw Report
METAR YPPH 221600Z 19008KT CAVOK 13/10 Q1025
NOSIG=

Extra information for YPPH:More info

Metar Taf Metar & Taf Last 4 Metars F.Rules Stats Wind Profile Meteogram Temp Stats Airport Information Weather charts Add Link Nearby VenuesMetar ALERT Operation Metar Decoded Social comments